Terminal Aerodrome Forecast
Issued by NWS Upton, NY

Home | Current Version | Previous Version | Text Only | Print | Product List | Glossary On
Versions: 1 2 3 4 5 6 7 8 9 10 11 12 13 14 15 16 17 18 19 20 21 22 23 24 25 26 27 28
000
FTUS41 KOKX 261446 AAA
TAFLGA
TAF AMD
KLGA 261446Z 2615/2712 22012G17KT P6SM FEW250
     FM261800 19016G22KT P6SM SCT250
     FM270300 20012KT P6SM BKN250
     FM270700 20010KT 4SM BR BKN050=

USA.gov is the U.S. government's official web portal to all federal, state and local government web resources and services.